Observations for GENOVA SESTRI, Italy (LIMJ)

LIMJ 181420Z 23008KT 190V260 9999 FEW045 SCT080 19/09 Q1022 
LIMJ 181350Z VRB07KT CAVOK 19/11 Q1022  
LIMJ 181320Z 25007KT 200V270 CAVOK 19/10 Q1022  
LIMJ 181250Z 23006KT 190V270 CAVOK 19/12 Q1022  
LIMJ 181220Z 23007KT 180V260 CAVOK 18/12 Q1023  
LIMJ 181150Z 25009KT 200V010 CAVOK 18/10 Q1023  
LIMJ 181120Z 27007KT CAVOK 18/11 Q1023  
LIMJ 181050Z 27014KT CAVOK 17/10 Q1023  
LIMJ 181020Z 26007KT 200V270 CAVOK 18/11 Q1023  
LIMJ 180950Z 26008KT 190V360 CAVOK 16/12 Q1023  
LIMJ 180920Z 26008KT 190V360 CAVOK 16/12 Q1023  
LIMJ 180850Z 26006KT CAVOK 16/10 Q1023  
LIMJ 180820Z 25004KT 260V320 CAVOK 16/09 Q1023  
LIMJ 180750Z 29004KT 260V320 CAVOK 17/07 Q1023  
LIMJ 180720Z 36003KT 310V080 CAVOK 17/05 Q1023  
LIMJ 180650Z 03003KT CAVOK 17/06 Q1022  
LIMJ 180620Z 01004KT 290V080 CAVOK 15/07 Q1022  
LIMJ 180550Z 35003KT 280V080 CAVOK 13/06 Q1022  
LIMJ 180520Z VRB02KT CAVOK 13/06 Q1022  
LIMJ 180450Z 08010KT CAVOK 11/06 Q1021  
LIMJ 180420Z 07009KT CAVOK 12/06 Q1021  
LIMJ 180350Z 30004KT CAVOK 14/06 Q1021  
LIMJ 180250Z VRB01KT CAVOK 13/08 Q1021  
LIMJ 180220Z VRB01KT CAVOK 13/08 Q1021  
LIMJ 180120Z VRB01KT CAVOK 13/08 Q1021  
LIMJ 180050Z VRB01KT CAVOK 13/08 Q1021  
LIMJ 180020Z 01003KT CAVOK 13/08 Q1021  
LIMJ 172350Z 32003KT CAVOK 13/08 Q1021  
LIMJ 172320Z 35004KT CAVOK 13/08 Q1021  
LIMJ 172250Z 35004KT CAVOK 13/08 Q1021  
LIMJ 172220Z VRB02KT CAVOK 14/09 Q1021  
LIMJ 172150Z 35004KT CAVOK 14/09 Q1021  
LIMJ 172120Z 35004KT CAVOK 14/09 Q1021  
LIMJ 172050Z VRB02KT CAVOK 15/10 Q1021  
LIMJ 172020Z 35004KT CAVOK 15/10 Q1021  
LIMJ 171950Z 34003KT CAVOK 15/11 Q1021  
LIMJ 171920Z 28004KT CAVOK 15/11 Q1021  
LIMJ 171850Z VRB02KT CAVOK 16/11 Q1020  
LIMJ 171820Z 25004KT 170V270 CAVOK 16/11 Q1020  
LIMJ 171750Z 22003KT CAVOK 16/11 Q1020  
LIMJ 171720Z 20003KT CAVOK 16/11 Q1020  
LIMJ 171650Z 21005KT 170V250 CAVOK 16/11 Q1020  
LIMJ 171620Z 20003KT CAVOK 16/12 Q1020  
LIMJ 171550Z 18003KT CAVOK 16/12 Q1020  
LIMJ 171520Z 20004KT 160V250 9999 FEW050 16/11 Q1020
LIMJ 171450Z 20003KT 150V250 9999 FEW060 17/12 Q1020
LIMJ 171420Z 20003KT 160V250 CAVOK 16/12 Q1020  
LIMJ 171350Z 20005KT 160V250 CAVOK 16/12 Q1020